createdAt,value
2023-01-02T00:01:00.097Z,100646.52
2023-01-02T00:02:02.430Z,100655.24
2023-01-02T00:03:04.607Z,100645.50
2023-01-02T00:04:07.464Z,100646.45
2023-01-02T00:05:11.162Z,100644.93
2023-01-02T00:06:14.292Z,100655.65
2023-01-02T00:07:16.544Z,100654.09
2023-01-02T00:08:19.320Z,100652.29
2023-01-02T00:09:21.338Z,100657.92
2023-01-02T00:10:23.412Z,100651.72
2023-01-02T00:11:25.289Z,100647.34
2023-01-02T00:12:27.370Z,100649.07
2023-01-02T00:13:29.283Z,100649.78
2023-01-02T00:14:31.180Z,100650.49
2023-01-02T00:15:34.317Z,100652.62
2023-01-02T00:16:36.601Z,100655.20
2023-01-02T00:17:39.350Z,100644.83
2023-01-02T00:18:41.355Z,100651.78
2023-01-02T00:19:43.592Z,100659.98
2023-01-02T00:20:45.808Z,100659.06
2023-01-02T00:21:47.712Z,100659.98
2023-01-02T00:22:49.859Z,100652.31
2023-01-02T00:23:51.850Z,100649.87
2023-01-02T00:24:54.060Z,100649.87
2023-01-02T00:25:56.244Z,100659.06
2023-01-02T00:26:58.729Z,100667.07
2023-01-02T00:28:02.360Z,100658.32
2023-01-02T00:29:04.268Z,100662.56
2023-01-02T00:30:07.892Z,100667.98
2023-01-02T00:31:12.907Z,100667.98
2023-01-02T00:32:15.508Z,100665.60
2023-01-02T00:33:17.389Z,100672.49
2023-01-02T00:34:19.548Z,100672.49
2023-01-02T00:35:21.518Z,100674.48
2023-01-02T00:36:24.943Z,100671.02
2023-01-02T00:37:27.076Z,100673.67
2023-01-02T00:38:28.939Z,100674.75
2023-01-02T00:39:30.820Z,100673.02
2023-01-02T00:40:33.485Z,100685.71
2023-01-02T00:41:35.827Z,100680.10
2023-01-02T00:42:38.486Z,100676.45
2023-01-02T00:43:40.482Z,100676.58
2023-01-02T00:44:42.546Z,100671.45
2023-01-02T00:45:44.424Z,100672.49
2023-01-02T00:46:46.907Z,100667.33
2023-01-02T00:47:48.952Z,100670.70
2023-01-02T00:48:51.026Z,100674.03
2023-01-02T00:49:53.031Z,100674.28
2023-01-02T00:50:55.545Z,100673.34
2023-01-02T00:57:11.656Z,100675.97
2023-01-02T00:58:13.532Z,100680.66
2023-01-02T00:59:15.439Z,100676.91
2023-01-02T01:00:23.690Z,100668.92
2023-01-02T01:01:23.244Z,100680.41
2023-01-02T01:02:25.711Z,100678.20
2023-01-02T01:03:28.397Z,100678.14
2023-01-02T01:04:35.919Z,100675.25
2023-01-02T01:05:38.660Z,100683.17
2023-01-02T01:06:40.732Z,100680.47
2023-01-02T01:07:42.593Z,100677.83
2023-01-02T01:08:44.568Z,100682.20
2023-01-02T01:09:46.439Z,100687.67
2023-01-02T01:10:48.520Z,100678.77
2023-01-02T01:11:50.390Z,100678.90
2023-01-02T01:12:52.531Z,100689.41
2023-01-02T01:13:54.511Z,100685.81
2023-01-02T01:14:56.505Z,100689.53
2023-01-02T01:16:07.233Z,100681.54
2023-01-02T01:17:09.302Z,100686.01
2023-01-02T01:18:11.413Z,100687.61
2023-01-02T01:19:13.894Z,100685.03
2023-01-02T01:20:16.068Z,100694.00
2023-01-02T01:21:20.836Z,100699.16
2023-01-02T01:22:22.753Z,100693.75
2023-01-02T01:23:24.723Z,100693.02
2023-01-02T01:24:27.530Z,100686.77
2023-01-02T01:25:31.210Z,100682.98
2023-01-02T01:26:33.512Z,100683.30
2023-01-02T01:27:36.447Z,100684.05
2023-01-02T01:28:39.667Z,100689.34
2023-01-02T01:29:41.613Z,100685.94
2023-01-02T01:30:43.677Z,100676.45
2023-01-02T01:31:45.695Z,100676.70
2023-01-02T01:32:47.761Z,100679.27
2023-01-02T01:34:52.120Z,100669.30
2023-01-02T01:35:54.128Z,100671.88
2023-01-02T01:36:56.520Z,100671.75
2023-01-02T01:37:58.988Z,100667.19
2023-01-02T01:39:00.898Z,100673.42
2023-01-02T01:40:03.961Z,100669.42
2023-01-02T01:41:07.099Z,100676.57
2023-01-02T01:42:14.510Z,100682.10
2023-01-02T01:43:16.447Z,100669.68
2023-01-02T01:44:42.879Z,100680.06
2023-01-02T01:45:45.470Z,100682.52
2023-01-02T01:46:48.360Z,100687.86
2023-01-02T01:47:54.007Z,100679.88
2023-01-02T01:49:05.852Z,100680.19
2023-01-02T01:50:13.687Z,100681.98
2023-01-02T01:51:18.979Z,100678.27
2023-01-02T01:52:24.692Z,100680.78
2023-01-02T01:53:26.824Z,100680.84
2023-01-02T01:54:32.497Z,100687.02
2023-01-02T01:56:54.549Z,100685.88
2023-01-02T01:58:06.487Z,100685.28
2023-01-02T01:59:11.154Z,100688.17
2023-01-02T02:00:14.683Z,100684.56
2023-01-02T02:01:17.603Z,100692.30
2023-01-02T02:02:22.751Z,100694.00
2023-01-02T02:03:28.400Z,100695.98
2023-01-02T02:04:30.802Z,100689.05
2023-01-02T02:05:34.090Z,100689.12
2023-01-02T02:06:37.156Z,100689.91
2023-01-02T02:07:41.601Z,100692.67
2023-01-02T02:08:50.252Z,100691.88
2023-01-02T02:10:05.167Z,100679.83
2023-01-02T02:11:09.099Z,100687.33
2023-01-02T02:12:12.327Z,100683.95
2023-01-02T02:13:16.445Z,100690.40
2023-01-02T02:14:18.513Z,100686.05
2023-01-02T02:15:24.187Z,100693.98
2023-01-02T02:16:30.101Z,100691.34
2023-01-02T02:17:45.199Z,100698.98
2023-01-02T02:19:07.107Z,100685.17
2023-01-02T02:21:57.866Z,100692.67
2023-01-02T02:23:12.334Z,100692.98
2023-01-02T02:24:36.199Z,100701.78
2023-01-02T02:26:06.711Z,100699.93
2023-01-02T02:27:27.521Z,100697.35
2023-01-02T02:28:42.569Z,100701.63
2023-01-02T02:30:04.187Z,100706.80
2023-01-02T02:31:14.811Z,100703.48
2023-01-02T02:32:38.633Z,100713.93
2023-01-02T02:33:59.735Z,100718.24
2023-01-02T02:35:11.470Z,100715.66
2023-01-02T02:36:36.187Z,100721.06
2023-01-02T02:39:22.648Z,100709.25
2023-01-02T02:40:40.864Z,100718.42
2023-01-02T02:41:52.841Z,100717.48
2023-01-02T02:43:30.471Z,100720.95
2023-01-02T02:44:41.961Z,100716.63
2023-01-02T02:46:02.508Z,100722.64
2023-01-02T02:47:08.358Z,100729.66
2023-01-02T02:48:26.091Z,100721.80
2023-01-02T02:49:34.980Z,100731.87
2023-01-02T02:50:43.577Z,100731.76
2023-01-02T02:53:08.082Z,100738.37
2023-01-02T02:54:19.579Z,100738.01
2023-01-02T02:55:29.325Z,100744.91
2023-01-02T02:56:32.157Z,100744.91
2023-01-02T02:57:37.515Z,100743.41
2023-01-02T02:58:41.843Z,100742.50
2023-01-02T02:59:43.923Z,100745.87
2023-01-02T03:00:46.269Z,100746.70
2023-01-02T03:01:49.071Z,100748.34
2023-01-02T03:02:52.492Z,100739.01
2023-01-02T03:03:54.684Z,100739.01
2023-01-02T03:05:00.364Z,100741.47
2023-01-02T03:06:06.145Z,100742.08
2023-01-02T03:07:14.757Z,100750.80
2023-01-02T03:08:20.429Z,100744.61
2023-01-02T03:09:47.421Z,100747.25
2023-01-02T03:10:53.540Z,100743.66
2023-01-02T03:12:16.130Z,100742.81
2023-01-02T03:13:52.023Z,100748.22
2023-01-02T03:16:28.952Z,100737.16
2023-01-02T03:17:56.227Z,100740.59
2023-01-02T03:19:05.791Z,100742.33
2023-01-02T03:20:11.687Z,100744.72
2023-01-02T03:21:31.026Z,100750.06
2023-01-02T03:22:33.806Z,100739.50
2023-01-02T03:23:45.557Z,100747.42
2023-01-02T03:24:50.700Z,100754.34
2023-01-02T03:25:53.409Z,100760.39
2023-01-02T03:27:00.117Z,100760.58
2023-01-02T03:28:06.053Z,100762.39
2023-01-02T03:29:11.956Z,100757.81
2023-01-02T03:30:17.760Z,100769.41
2023-01-02T03:31:23.439Z,100770.14
2023-01-02T03:32:41.402Z,100767.01
2023-01-02T03:33:47.091Z,100772.05
2023-01-02T03:34:51.734Z,100767.73
2023-01-02T03:36:03.669Z,100767.68
2023-01-02T03:37:09.842Z,100769.41
2023-01-02T03:38:30.814Z,100768.50
2023-01-02T03:39:36.617Z,100760.64
2023-01-02T03:40:42.489Z,100765.92
2023-01-02T03:41:48.262Z,100768.50
2023-01-02T03:43:03.016Z,100770.32
2023-01-02T03:44:08.617Z,100771.27
2023-01-02T03:45:14.427Z,100769.77
2023-01-02T03:46:24.662Z,100775.11
2023-01-02T03:47:39.071Z,100775.87
2023-01-02T03:48:45.010Z,100776.96
2023-01-02T03:49:50.793Z,100779.55
2023-01-02T03:50:58.220Z,100774.38
2023-01-02T03:52:00.503Z,100777.69
2023-01-02T03:53:03.194Z,100772.30
2023-01-02T03:54:05.516Z,100777.64
2023-01-02T03:55:09.017Z,100780.39
2023-01-02T03:56:37.030Z,100779.55
2023-01-02T03:57:57.485Z,100773.30
2023-01-02T03:59:17.411Z,100776.78
2023-01-02T04:00:21.431Z,100776.84
2023-01-02T04:01:30.168Z,100780.34
2023-01-02T04:02:36.081Z,100785.73
2023-01-02T04:03:42.253Z,100788.38
2023-01-02T04:04:51.431Z,100791.46
2023-01-02T04:07:17.083Z,100788.76
2023-01-02T04:08:26.046Z,100796.19
2023-01-02T04:09:31.707Z,100803.37
2023-01-02T04:10:37.519Z,100793.55
2023-01-02T04:11:43.171Z,100799.59
2023-01-02T04:12:48.846Z,100793.42
2023-01-02T04:13:54.668Z,100794.60
2023-01-02T04:15:01.047Z,100796.25
2023-01-02T04:16:06.078Z,100796.95
2023-01-02T04:17:10.207Z,100799.71
2023-01-02T04:18:15.849Z,100801.47
2023-01-02T04:19:24.550Z,100805.96
2023-01-02T04:20:31.184Z,100812.16
2023-01-02T04:21:35.961Z,100808.95
2023-01-02T04:25:13.311Z,100821.02
2023-01-02T04:26:19.292Z,100817.81
2023-01-02T04:27:31.234Z,100825.68
2023-01-02T04:28:34.634Z,100830.13
2023-01-02T04:29:37.003Z,100824.00
2023-01-02T04:30:43.122Z,100831.13
2023-01-02T04:32:04.241Z,100830.02
2023-01-02T04:33:09.575Z,100831.13
2023-01-02T04:34:14.624Z,100832.72
2023-01-02T04:35:23.297Z,100834.67
2023-01-02T04:36:26.383Z,100835.64
2023-01-02T04:38:43.687Z,100833.97
2023-01-02T04:39:46.796Z,100842.33
2023-01-02T04:40:49.518Z,100844.91
2023-01-02T04:41:51.665Z,100847.61
2023-01-02T04:42:53.802Z,100845.82
2023-01-02T04:43:56.680Z,100851.98
2023-01-02T04:44:58.919Z,100853.00
2023-01-02T04:46:00.927Z,100851.57
2023-01-02T04:47:03.281Z,100848.05
2023-01-02T04:48:06.499Z,100853.94
2023-01-02T04:49:09.591Z,100853.99
2023-01-02T04:50:13.717Z,100853.05
2023-01-02T04:51:17.377Z,100860.13
2023-01-02T04:52:19.412Z,100858.28
2023-01-02T04:53:21.544Z,100857.54
2023-01-02T04:54:23.544Z,100857.54
2023-01-02T04:55:25.669Z,100863.14
2023-01-02T04:56:28.727Z,100857.65
2023-01-02T04:57:32.989Z,100866.05
2023-01-02T04:58:36.266Z,100865.67
2023-01-02T04:59:38.148Z,100863.78
2023-01-02T05:00:40.235Z,100869.11
2023-01-02T05:01:42.196Z,100866.47
2023-01-02T05:02:44.388Z,100872.63
2023-01-02T05:03:48.951Z,100872.63
2023-01-02T05:04:51.122Z,100872.69
2023-01-02T05:06:01.671Z,100875.27
2023-01-02T05:07:05.040Z,100872.63
2023-01-02T05:08:12.109Z,100870.00
2023-01-02T05:09:10.847Z,100877.03
2023-01-02T05:10:13.520Z,100877.03
2023-01-02T05:11:18.295Z,100884.95
2023-01-02T05:12:20.305Z,100884.90
2023-01-02T05:13:23.052Z,100883.94
2023-01-02T05:14:25.757Z,100880.45
2023-01-02T05:15:27.809Z,100883.09
2023-01-02T05:16:29.819Z,100880.50
2023-01-02T05:18:47.605Z,100885.31
2023-01-02T05:19:49.547Z,100892.81
2023-01-02T05:20:51.511Z,100892.13
2023-01-02T05:21:53.379Z,100893.59
2023-01-02T05:22:56.184Z,100899.14
2023-01-02T05:24:01.203Z,100889.96
2023-01-02T05:25:03.992Z,100897.09
2023-01-02T05:26:11.778Z,100891.91
2023-01-02T05:27:13.977Z,100896.28
2023-01-02T05:28:15.982Z,100904.31
2023-01-02T05:29:18.949Z,100904.31
2023-01-02T05:30:21.873Z,100903.73
2023-01-02T05:31:24.294Z,100901.83
2023-01-02T05:32:27.541Z,100907.06
2023-01-02T05:33:29.739Z,100916.69
2023-01-02T05:34:32.616Z,100911.41
2023-01-02T05:35:34.525Z,100910.50
2023-01-02T05:36:36.865Z,100906.12
2023-01-02T05:37:38.788Z,100908.77
2023-01-02T05:38:40.811Z,100913.30
2023-01-02T05:39:42.668Z,100915.88
2023-01-02T05:40:44.741Z,100915.98
2023-01-02T05:41:47.488Z,100908.06
2023-01-02T05:42:49.448Z,100916.98
2023-01-02T05:43:53.771Z,100919.41
2023-01-02T05:44:56.086Z,100919.41
2023-01-02T05:45:58.260Z,100920.36
2023-01-02T05:47:00.890Z,100917.08
2023-01-02T05:48:03.416Z,100920.03
2023-01-02T05:49:07.792Z,100909.37
2023-01-02T05:50:10.097Z,100912.81
2023-01-02T05:51:14.276Z,100915.19
2023-01-02T05:52:16.316Z,100916.14
2023-01-02T05:53:18.301Z,100910.11
2023-01-02T05:54:20.170Z,100910.06
2023-01-02T05:55:22.396Z,100909.11
2023-01-02T05:56:26.797Z,100904.63
2023-01-02T05:57:28.717Z,100907.96
2023-01-02T05:58:33.462Z,100909.80
2023-01-02T05:59:36.414Z,100907.11
2023-01-02T06:00:39.346Z,100910.60
2023-01-02T06:01:41.328Z,100915.03
2023-01-02T06:02:47.991Z,100914.23
2023-01-02T06:03:49.610Z,100917.72
2023-01-02T06:04:51.703Z,100913.34
2023-01-02T06:05:53.571Z,100912.50
2023-01-02T06:06:56.982Z,100923.00
2023-01-02T06:07:58.909Z,100916.88
2023-01-02T06:09:02.730Z,100915.88
2023-01-02T06:10:06.649Z,100915.19
2023-01-02T06:11:09.324Z,100911.70
2023-01-02T06:12:11.549Z,100916.09
2023-01-02T06:13:13.721Z,100915.08
2023-01-02T06:14:16.077Z,100915.08
2023-01-02T06:15:18.160Z,100913.45
2023-01-02T06:16:21.426Z,100921.42
2023-01-02T06:17:23.450Z,100924.11
2023-01-02T06:18:26.537Z,100932.08
2023-01-02T06:19:29.341Z,100928.59
2023-01-02T06:20:31.443Z,100940.09
2023-01-02T06:21:33.833Z,100941.78
2023-01-02T06:22:35.699Z,100940.19
2023-01-02T06:23:38.572Z,100936.61
2023-01-02T06:24:41.151Z,100938.45
2023-01-02T06:25:43.238Z,100934.12
2023-01-02T06:26:45.442Z,100932.22
2023-01-02T06:27:47.394Z,100936.71
2023-01-02T06:28:51.831Z,100935.96
2023-01-02T06:29:53.761Z,100931.48
2023-01-02T06:32:11.222Z,100931.08
2023-01-02T06:33:13.597Z,100938.45
2023-01-02T06:34:15.565Z,100934.95
2023-01-02T06:35:17.534Z,100942.72
2023-01-02T06:36:19.837Z,100936.61
2023-01-02T06:37:21.844Z,100943.62
2023-01-02T06:38:23.826Z,100946.31
2023-01-02T06:39:25.858Z,100944.78
2023-01-02T06:40:27.937Z,100949.05
2023-01-02T06:41:29.901Z,100959.36
2023-01-02T06:42:33.200Z,100956.67
2023-01-02T06:43:38.365Z,100956.56
2023-01-02T06:44:40.316Z,100955.48
2023-01-02T06:45:42.324Z,100949.14
2023-01-02T06:46:44.699Z,100958.81
2023-01-02T06:47:46.565Z,100957.22
2023-01-02T06:48:49.368Z,100954.58
2023-01-02T06:49:51.294Z,100959.86
2023-01-02T06:50:54.030Z,100955.27
2023-01-02T06:51:55.932Z,100966.58
2023-01-02T06:52:58.141Z,100958.66
2023-01-02T06:54:00.720Z,100960.24
2023-01-02T06:55:03.688Z,100960.98
2023-01-02T06:56:07.688Z,100963.69
2023-01-02T06:57:10.715Z,100963.47
2023-01-02T06:58:19.123Z,100963.69
2023-01-02T06:59:16.412Z,100967.12
2023-01-02T07:00:19.688Z,100979.98
2023-01-02T07:01:23.071Z,100966.67
2023-01-02T07:02:25.243Z,100974.25
2023-01-02T07:03:27.472Z,100974.34
2023-01-02T07:04:29.961Z,100975.87
2023-01-02T07:05:32.056Z,100984.42
2023-01-02T07:06:34.379Z,100975.45
2023-01-02T07:07:37.046Z,100973.54
2023-01-02T07:08:39.440Z,100976.98
2023-01-02T07:09:41.328Z,100976.87
2023-01-02T07:10:47.887Z,100973.54
2023-01-02T07:11:47.443Z,100974.44
2023-01-02T07:12:49.464Z,100980.42
2023-01-02T07:13:53.439Z,100976.77
2023-01-02T07:14:55.446Z,100977.08
2023-01-02T07:16:03.605Z,100972.59
2023-01-02T07:17:05.693Z,100969.85
2023-01-02T07:18:07.768Z,100982.16
2023-01-02T07:19:10.336Z,100977.29
2023-01-02T07:20:12.760Z,100976.70
2023-01-02T07:21:15.827Z,100970.27
2023-01-02T07:22:18.068Z,100974.59
2023-01-02T07:23:21.217Z,100972.97
2023-01-02T07:24:23.936Z,100983.27
2023-01-02T07:25:25.825Z,100977.02
2023-01-02T07:26:27.921Z,100983.20
2023-01-02T07:27:30.794Z,100976.88
2023-01-02T07:28:33.662Z,100987.22
2023-01-02T07:29:35.675Z,100982.66
2023-01-02T07:30:38.823Z,100986.95
2023-01-02T07:31:40.761Z,100984.17
2023-01-02T07:32:42.800Z,100989.29
2023-01-02T07:33:45.281Z,100979.19
2023-01-02T07:34:47.270Z,100979.02
2023-01-02T07:35:49.431Z,100982.66
2023-01-02T07:36:51.623Z,100982.40
2023-01-02T07:37:53.528Z,100989.03
2023-01-02T07:38:55.836Z,100983.69
2023-01-02T07:39:57.819Z,100988.48
2023-01-02T07:41:00.419Z,100993.77
2023-01-02T07:42:02.651Z,100993.42
2023-01-02T07:43:04.741Z,100988.97
2023-01-02T07:44:07.052Z,100985.61
2023-01-02T07:45:10.246Z,100989.48
2023-01-02T07:46:15.790Z,100990.78
2023-01-02T07:47:17.923Z,100992.75
2023-01-02T07:48:20.219Z,100993.88
2023-01-02T07:49:22.113Z,100991.06
2023-01-02T07:50:24.540Z,100997.01
2023-01-02T07:51:27.763Z,100992.52
2023-01-02T07:52:30.559Z,100983.63
2023-01-02T07:53:33.495Z,100988.36
2023-01-02T07:54:35.843Z,100994.04
2023-01-02T07:55:37.739Z,100988.63
2023-01-02T07:56:42.363Z,100993.30
2023-01-02T07:57:45.870Z,100996.51
2023-01-02T07:58:47.962Z,100998.38
2023-01-02T07:59:50.630Z,101001.88
2023-01-02T08:00:53.371Z,101005.69
2023-01-02T08:01:56.498Z,101001.82
2023-01-02T08:02:59.771Z,101007.35
2023-01-02T08:04:01.742Z,101005.26
2023-01-02T08:05:05.036Z,101000.09
2023-01-02T08:06:11.042Z,101000.45
2023-01-02T08:07:12.990Z,101000.71
2023-01-02T08:08:15.089Z,101011.91
2023-01-02T08:09:16.991Z,101001.58
2023-01-02T08:10:19.788Z,101001.22
2023-01-02T08:11:22.230Z,101008.15
2023-01-02T08:12:24.122Z,101009.28
2023-01-02T08:13:26.037Z,100999.23
2023-01-02T08:14:27.929Z,100997.06
2023-01-02T08:15:31.122Z,101003.03
2023-01-02T08:16:33.508Z,100996.28
2023-01-02T08:17:35.621Z,101006.63
2023-01-02T08:18:39.071Z,101008.39
2023-01-02T08:19:41.209Z,101005.32
2023-01-02T08:20:43.223Z,101007.11
2023-01-02T08:21:45.199Z,101016.45
2023-01-02T08:22:47.218Z,101005.55
2023-01-02T08:23:49.176Z,101009.93
2023-01-02T08:24:51.970Z,101008.98
2023-01-02T08:26:04.144Z,101008.80
2023-01-02T08:27:06.215Z,101004.64
2023-01-02T08:28:08.086Z,101007.23
2023-01-02T08:29:10.007Z,101006.11
2023-01-02T08:30:12.597Z,101005.32
2023-01-02T08:31:18.212Z,101005.55
2023-01-02T08:32:20.388Z,101004.35
2023-01-02T08:33:22.506Z,101014.70
2023-01-02T08:34:24.737Z,101010.34
2023-01-02T08:35:37.944Z,101009.30
2023-01-02T08:36:30.747Z,101005.42
2023-01-02T08:37:33.024Z,101009.30
2023-01-02T08:38:35.023Z,101017.70
2023-01-02T08:39:36.934Z,101005.48
2023-01-02T08:40:39.453Z,101014.82
2023-01-02T08:41:41.344Z,101012.99
2023-01-02T08:42:43.739Z,101008.36
2023-01-02T08:43:45.636Z,101004.80
2023-01-02T08:44:48.161Z,101007.45
2023-01-02T08:45:50.093Z,101010.75
2023-01-02T08:46:52.568Z,101001.86
2023-01-02T08:47:54.420Z,101006.34
2023-01-02T08:48:57.466Z,101003.37
2023-01-02T08:49:59.607Z,101000.28
2023-01-02T08:51:02.707Z,101005.07
2023-01-02T08:52:04.909Z,101005.95
2023-01-02T08:53:12.614Z,101003.78
2023-01-02T08:54:10.846Z,101000.92
2023-01-02T08:55:12.945Z,100996.53
2023-01-02T08:56:20.878Z,101003.50
2023-01-02T08:57:22.918Z,100995.61
2023-01-02T08:58:24.942Z,100996.46
2023-01-02T08:59:27.435Z,100993.42
2023-01-02T09:00:30.338Z,100997.81
2023-01-02T09:01:33.668Z,100995.95
2023-01-02T09:02:35.971Z,100991.03
2023-01-02T09:03:38.462Z,100988.32
2023-01-02T09:04:40.879Z,100984.62
2023-01-02T09:05:42.740Z,100988.39
2023-01-02T09:06:46.671Z,100987.11
2023-01-02T09:07:49.869Z,100982.30
2023-01-02T09:08:52.986Z,100976.74
2023-01-02T09:09:54.992Z,100981.91
2023-01-02T09:10:57.180Z,100981.48
2023-01-02T09:11:59.078Z,100977.98
2023-01-02T09:13:00.940Z,100976.80
2023-01-02T09:14:05.234Z,100980.37
2023-01-02T09:15:08.333Z,100988.39
2023-01-02T09:16:11.579Z,100979.98
2023-01-02T09:17:13.846Z,100979.06
2023-01-02T09:18:15.769Z,100983.35
2023-01-02T09:19:18.208Z,100985.80
2023-01-02T09:20:20.418Z,100977.39
2023-01-02T09:21:22.840Z,100982.28
2023-01-02T09:22:25.370Z,100976.23
2023-01-02T09:23:28.149Z,100979.84
2023-01-02T09:24:30.045Z,100975.92
2023-01-02T09:25:31.944Z,100976.44
2023-01-02T09:26:34.677Z,100978.70
2023-01-02T09:27:36.564Z,100976.12
2023-01-02T09:28:38.602Z,100972.75
2023-01-02T09:29:40.479Z,100972.02
2023-01-02T09:30:43.208Z,100972.63
2023-01-02T09:31:45.975Z,100967.05
2023-01-02T09:32:48.275Z,100960.27
2023-01-02T09:33:53.089Z,100966.38
2023-01-02T09:34:55.132Z,100959.64
2023-01-02T09:37:10.448Z,100955.92
2023-01-02T09:38:12.719Z,100961.38
2023-01-02T09:39:15.504Z,100964.47
2023-01-02T09:40:17.983Z,100963.15
2023-01-02T09:41:32.307Z,100955.91
2023-01-02T09:42:35.407Z,100959.09
2023-01-02T09:43:41.202Z,100956.88
2023-01-02T09:46:02.535Z,100950.12
2023-01-02T09:48:26.807Z,100949.13
2023-01-02T09:49:32.359Z,100957.16
2023-01-02T09:50:35.186Z,100957.02
2023-01-02T09:51:37.478Z,100959.38
2023-01-02T09:52:42.859Z,100953.77
2023-01-02T09:53:45.423Z,100954.08
2023-01-02T09:54:50.327Z,100962.95
2023-01-02T09:56:07.600Z,100961.97
2023-01-02T09:57:28.690Z,100959.24
2023-01-02T09:58:36.985Z,100957.80
2023-01-02T09:59:48.549Z,100969.99
2023-01-02T10:00:51.170Z,100965.61
2023-01-02T10:02:18.472Z,100963.81
2023-01-02T10:03:30.596Z,100967.62
2023-01-02T10:04:36.428Z,100963.96
2023-01-02T10:05:48.312Z,100971.03
2023-01-02T10:07:10.695Z,100971.47
2023-01-02T10:08:37.404Z,100967.26
2023-01-02T10:10:06.132Z,100970.41
2023-01-02T10:11:23.970Z,100966.67
2023-01-02T10:12:41.883Z,100975.72
2023-01-02T10:14:56.007Z,100970.13
2023-01-02T10:16:01.764Z,100969.18
2023-01-02T10:17:06.629Z,100975.16
2023-01-02T10:18:18.274Z,100972.64
2023-01-02T10:19:30.154Z,100963.59
2023-01-02T10:20:36.161Z,100968.33
2023-01-02T10:21:40.662Z,100964.95
2023-01-02T10:22:49.053Z,100964.61
2023-01-02T10:24:06.420Z,100968.03
2023-01-02T10:26:41.584Z,100963.45
2023-01-02T10:27:50.439Z,100959.30
2023-01-02T10:28:56.120Z,100967.12
2023-01-02T10:30:20.090Z,100959.73
2023-01-02T10:31:28.635Z,100962.09
2023-01-02T10:32:33.787Z,100964.61
2023-01-02T10:33:45.724Z,100961.81
2023-01-02T10:34:51.406Z,100966.80
2023-01-02T10:35:57.086Z,100960.38
2023-01-02T10:37:03.057Z,100962.67
2023-01-02T10:38:03.466Z,100957.51
2023-01-02T10:39:09.280Z,100961.00
2023-01-02T10:40:12.234Z,100956.06
2023-01-02T10:41:14.111Z,100951.00
2023-01-02T10:42:17.223Z,100951.06
2023-01-02T10:43:19.395Z,100951.50
2023-01-02T10:44:27.387Z,100953.41
2023-01-02T10:45:29.625Z,100957.66
2023-01-02T10:46:35.684Z,100954.06
2023-01-02T10:47:39.051Z,100958.34
2023-01-02T10:48:46.943Z,100963.72
2023-01-02T10:49:48.631Z,100958.07
2023-01-02T10:50:56.192Z,100962.31
2023-01-02T10:52:04.887Z,100957.80
2023-01-02T10:54:21.163Z,100947.11
2023-01-02T10:55:31.876Z,100958.21
2023-01-02T10:56:37.700Z,100946.46
2023-01-02T10:57:46.731Z,100947.74
2023-01-02T10:58:50.649Z,100939.51
2023-01-02T10:59:59.676Z,100929.25
2023-01-02T11:01:14.111Z,100939.02
2023-01-02T11:02:32.422Z,100943.61
2023-01-02T11:03:34.637Z,100943.33
2023-01-02T11:04:40.266Z,100944.03
2023-01-02T11:05:51.674Z,100941.31
2023-01-02T11:06:57.488Z,100943.08
2023-01-02T11:08:03.390Z,100943.67
2023-01-02T11:09:18.594Z,100942.66
2023-01-02T11:10:27.568Z,100943.01
2023-01-02T11:11:33.511Z,100941.31
2023-01-02T11:12:39.265Z,100952.34
2023-01-02T11:13:53.818Z,100951.34
2023-01-02T11:14:54.560Z,100943.89
2023-01-02T11:16:02.071Z,100952.13
2023-01-02T11:17:23.073Z,100951.98
2023-01-02T11:18:28.449Z,100947.05
2023-01-02T11:19:41.224Z,100950.33
2023-01-02T11:20:49.940Z,100958.22
2023-01-02T11:21:53.227Z,100954.70
2023-01-02T11:22:58.479Z,100956.73
2023-01-02T11:24:06.900Z,100950.19
2023-01-02T11:25:12.590Z,100957.37
2023-01-02T11:26:24.351Z,100946.76
2023-01-02T11:27:34.244Z,100953.77
2023-01-02T11:28:39.016Z,100955.21
2023-01-02T11:29:44.834Z,100943.75
2023-01-02T11:30:52.001Z,100954.29
2023-01-02T11:31:58.357Z,100950.83
2023-01-02T11:34:22.894Z,100952.47
2023-01-02T11:35:40.424Z,100961.78
2023-01-02T11:36:44.307Z,100954.64
2023-01-02T11:37:52.248Z,100953.34
2023-01-02T11:38:55.864Z,100953.83
2023-01-02T11:40:01.245Z,100950.18
2023-01-02T11:41:03.850Z,100945.58
2023-01-02T11:42:13.316Z,100949.01
2023-01-02T11:43:16.044Z,100955.20
2023-01-02T11:44:27.697Z,100948.79
2023-01-02T11:45:30.467Z,100949.59
2023-01-02T11:46:38.505Z,100949.27
2023-01-02T11:47:52.544Z,100951.78
2023-01-02T11:49:04.279Z,100956.94
2023-01-02T11:50:08.762Z,100951.70
2023-01-02T11:51:18.001Z,100942.67
2023-01-02T11:52:23.706Z,100948.75
2023-01-02T11:54:57.588Z,100936.03
2023-01-02T11:56:12.332Z,100933.34
2023-01-02T11:57:20.781Z,100928.29
2023-01-02T11:58:39.652Z,100922.73
2023-01-02T11:59:44.468Z,100924.23
2023-01-02T12:00:50.349Z,100925.02
2023-01-02T12:02:02.532Z,100918.63
2023-01-02T12:03:18.883Z,100915.02
2023-01-02T12:04:23.040Z,100903.70
2023-01-02T12:05:44.042Z,100908.94
2023-01-02T12:07:09.592Z,100908.78
2023-01-02T12:09:44.230Z,100898.25
2023-01-02T12:10:54.074Z,100899.66
2023-01-02T12:11:59.885Z,100894.28
2023-01-02T12:13:20.378Z,100894.98
2023-01-02T12:14:28.948Z,100893.63
2023-01-02T12:15:54.482Z,100894.44
2023-01-02T12:17:15.211Z,100901.44
2023-01-02T12:18:46.711Z,100899.89
2023-01-02T12:20:24.875Z,100902.25
2023-01-02T12:21:50.068Z,100901.44
2023-01-02T12:23:04.769Z,100903.32
2023-01-02T12:24:10.440Z,100905.05
2023-01-02T12:25:35.986Z,100901.59
2023-01-02T12:27:00.143Z,100896.28
2023-01-02T12:28:11.828Z,100905.20
2023-01-02T12:29:48.956Z,100905.98
2023-01-02T12:31:13.501Z,100902.40
2023-01-02T12:32:34.601Z,100901.59
2023-01-02T12:34:06.067Z,100903.40
2023-01-02T12:35:34.757Z,100899.09
2023-01-02T12:36:57.574Z,100897.47
2023-01-02T12:38:03.287Z,100898.47
2023-01-02T12:39:21.425Z,100904.80
2023-01-02T12:42:06.727Z,100903.62
2023-01-02T12:44:53.957Z,100911.59
2023-01-02T12:46:03.239Z,100913.92
2023-01-02T12:47:25.827Z,100912.30
2023-01-02T12:48:44.605Z,100914.87
2023-01-02T12:49:50.287Z,100913.14
2023-01-02T12:51:08.665Z,100915.09
2023-01-02T12:52:20.433Z,100918.67
2023-01-02T12:54:19.148Z,100915.17
2023-01-02T12:55:06.803Z,100918.67
2023-01-02T12:56:18.830Z,100924.83
2023-01-02T12:57:36.924Z,100922.17
2023-01-02T12:58:42.737Z,100925.78
2023-01-02T13:00:00.053Z,100925.93
2023-01-02T13:01:20.720Z,100931.23
2023-01-02T13:02:41.730Z,100925.13
2023-01-02T13:03:59.919Z,100919.04
2023-01-02T13:05:08.720Z,100920.91
2023-01-02T13:06:45.849Z,100917.48
2023-01-02T13:07:41.255Z,100920.22
2023-01-02T13:08:53.217Z,100919.41
2023-01-02T13:09:57.015Z,100920.43
2023-01-02T13:11:02.791Z,100924.97